Time;durP1;ratioP1;P1;durP2;ratioP2;P2;SDS_P1;SDS_P2;PMS_P1;PMS_P2;Temp;Humidity;BMP_temperature;BMP_pressure;BME280_temperature;BME280_humidity;BME280_pressure;Samples;Min_cycle;Max_cycle;Signal;HPM_P1;HPM_P2
2023/07/17 00:01:00;;;;;;;;;;;;;;;26.58;100.00;99687.66;5074868;28;19916;-80
2023/07/17 00:03:25;;;;;;;;;;;;;;;26.58;100.00;99686.84;5075578;28;20361;-80
2023/07/17 00:05:51;;;;;;;;;;;;;;;26.57;100.00;99685.22;5071569;28;19920;-82
2023/07/17 00:08:16;;;;;;;;;;;;;;;26.51;100.00;99680.78;5076304;28;20387;-81
2023/07/17 00:10:42;;;;;;;;;;;;;;;26.53;100.00;99689.47;5073955;28;19916;-79
2023/07/17 00:13:08;;;;;;;;;;;;;;;26.45;100.00;99683.38;5071235;28;19917;-81
2023/07/17 00:15:33;;;;;;;;;;;;;;;26.36;100.00;99684.84;5072749;28;19962;-80
2023/07/17 00:17:58;;;;;;;;;;;;;;;26.36;100.00;99684.03;5076362;28;20007;-81
2023/07/17 00:20:24;;;;;;;;;;;;;;;26.31;100.00;99682.03;5073108;28;20258;-80
2023/07/17 00:22:49;;;;;;;;;;;;;;;26.19;100.00;99692.06;5074807;28;19924;-80
2023/07/17 00:25:14;;;;;;;;;;;;;;;26.04;100.00;99689.03;5074329;28;19924;-80
2023/07/17 00:27:40;;;;;;;;;;;;;;;25.88;100.00;99687.09;5072779;28;19917;-80
2023/07/17 00:30:05;;;;;;;;;;;;;;;25.96;100.00;99686.72;5073714;28;20331;-82
2023/07/17 00:32:31;;;;;;;;;;;;;;;25.95;100.00;99682.38;5075730;28;19959;-82
2023/07/17 00:34:56;;;;;;;;;;;;;;;25.85;100.00;99685.69;5072605;28;20007;-78
2023/07/17 00:37:21;;;;;;;;;;;;;;;25.78;100.00;99681.47;5077389;28;19922;-81
2023/07/17 00:39:48;;;;;;;;;;;;;;;25.66;100.00;99685.03;5071678;28;19916;-81
2023/07/17 00:42:14;;;;;;;;;;;;;;;25.50;100.00;99687.59;5072190;28;19942;-81
2023/07/17 00:44:39;;;;;;;;;;;;;;;25.42;100.00;99686.06;5074793;28;19920;-82
2023/07/17 00:47:05;;;;;;;;;;;;;;;25.27;100.00;99680.34;5072688;28;19917;-81
2023/07/17 00:49:32;;;;;;;;;;;;;;;25.30;100.00;99682.56;5073242;28;19979;-81
2023/07/17 00:51:58;;;;;;;;;;;;;;;25.37;100.00;99680.56;5074183;28;19963;-80
2023/07/17 00:54:24;;;;;;;;;;;;;;;25.43;100.00;99689.59;5070898;28;19940;-81
2023/07/17 00:56:50;;;;;;;;;;;;;;;25.52;100.00;99691.69;5075435;28;19916;-81
2023/07/17 00:59:17;;;;;;;;;;;;;;;25.59;100.00;99684.31;5069482;28;20763;-82
2023/07/17 01:01:42;;;;;;;;;;;;;;;25.39;100.00;99688.44;5072866;28;19970;-80
2023/07/17 01:04:08;;;;;;;;;;;;;;;25.06;100.00;99694.41;5070371;28;20372;-79
2023/07/17 01:06:38;;;;;;;;;;;;;;;25.07;100.00;99706.84;5073296;28;19924;-81
2023/07/17 01:09:04;;;;;;;;;;;;;;;25.08;100.00;99692.31;5073795;28;19977;-80
2023/07/17 01:11:29;;;;;;;;;;;;;;;24.74;100.00;99686.56;5072649;28;19920;-82
2023/07/17 01:13:55;;;;;;;;;;;;;;;24.70;100.00;99690.78;5071568;28;20291;-80
2023/07/17 01:16:20;;;;;;;;;;;;;;;24.72;100.00;99687.88;5077436;28;19913;-79
2023/07/17 01:18:45;;;;;;;;;;;;;;;24.60;100.00;99695.94;5076524;28;19916;-79
2023/07/17 01:21:16;;;;;;;;;;;;;;;24.41;100.00;99692.47;5077499;28;19920;-79
2023/07/17 01:23:42;;;;;;;;;;;;;;;24.35;100.00;99687.16;5078127;28;19912;-81
2023/07/17 01:26:11;;;;;;;;;;;;;;;24.38;100.00;99681.31;5076078;28;19916;-79
2023/07/17 01:28:37;;;;;;;;;;;;;;;24.55;100.00;99686.88;5078592;28;19912;-80
2023/07/17 01:31:03;;;;;;;;;;;;;;;24.62;100.00;99680.34;5078967;28;19922;-80
2023/07/17 01:33:28;;;;;;;;;;;;;;;24.61;100.00;99681.38;5076029;28;19923;-81
2023/07/17 01:35:55;;;;;;;;;;;;;;;24.46;100.00;99684.50;5079221;28;19960;-81
2023/07/17 01:38:21;;;;;;;;;;;;;;;24.44;100.00;99675.00;5077089;28;19952;-81
2023/07/17 01:40:46;;;;;;;;;;;;;;;24.35;100.00;99682.59;5078695;28;20010;-81
2023/07/17 01:43:11;;;;;;;;;;;;;;;24.46;100.00;99678.28;5077081;28;19920;-80
2023/07/17 01:45:37;;;;;;;;;;;;;;;24.40;100.00;99673.78;5075662;28;19917;-81
2023/07/17 01:48:04;;;;;;;;;;;;;;;24.44;100.00;99675.00;5073696;28;19958;-80
2023/07/17 01:50:29;;;;;;;;;;;;;;;24.50;100.00;99666.00;5079682;28;19916;-79
2023/07/17 01:52:55;;;;;;;;;;;;;;;24.58;100.00;99665.66;5074652;28;19946;-79
2023/07/17 01:55:20;;;;;;;;;;;;;;;24.64;100.00;99669.28;5079624;28;19928;-79
2023/07/17 01:57:45;;;;;;;;;;;;;;;24.67;100.00;99675.06;5088983;28;19986;-78
2023/07/17 02:00:12;;;;;;;;;;;;;;;24.53;100.00;99673.63;5101124;28;19916;-80
2023/07/17 02:02:40;;;;;;;;;;;;;;;24.46;100.00;99673.72;5091219;28;19916;-78
2023/07/17 02:05:06;;;;;;;;;;;;;;;24.41;100.00;99678.16;5087604;28;19938;-78
2023/07/17 02:07:32;;;;;;;;;;;;;;;24.36;100.00;99668.06;5087354;28;19920;-79
2023/07/17 02:10:01;;;;;;;;;;;;;;;24.23;100.00;99672.78;5089144;28;19917;-78
2023/07/17 02:12:26;;;;;;;;;;;;;;;24.35;100.00;99676.38;5079850;28;19916;-78
2023/07/17 02:14:51;;;;;;;;;;;;;;;24.20;100.00;99668.69;5088573;28;19971;-79
2023/07/17 02:17:17;;;;;;;;;;;;;;;24.34;100.00;99672.00;5101782;28;19987;-78
2023/07/17 02:19:42;;;;;;;;;;;;;;;24.42;100.00;99685.19;5091708;28;19923;-80
2023/07/17 02:22:07;;;;;;;;;;;;;;;24.40;100.00;99680.03;5077464;28;19942;-77
2023/07/17 02:24:33;;;;;;;;;;;;;;;24.34;100.00;99678.25;5060332;28;19917;-80
2023/07/17 02:26:58;;;;;;;;;;;;;;;24.26;100.00;99685.84;5072665;28;19916;-80
2023/07/17 02:29:24;;;;;;;;;;;;;;;24.32;100.00;99685.75;5076598;28;20065;-81
2023/07/17 02:31:49;;;;;;;;;;;;;;;24.36;100.00;99683.41;5075247;28;20024;-81
2023/07/17 02:34:15;;;;;;;;;;;;;;;24.41;100.00;99687.06;5073717;28;19925;-79
2023/07/17 02:36:40;;;;;;;;;;;;;;;24.37;100.00;99690.47;5077885;28;19939;-80
2023/07/17 02:39:05;;;;;;;;;;;;;;;24.42;100.00;99691.41;5076218;28;19916;-81
2023/07/17 02:41:31;;;;;;;;;;;;;;;24.48;100.00;99686.97;5073226;28;19954;-81
2023/07/17 02:43:56;;;;;;;;;;;;;;;24.49;100.00;99688.63;5094236;28;19916;-81
2023/07/17 02:46:21;;;;;;;;;;;;;;;24.51;100.00;99680.28;5074890;28;20487;-80
2023/07/17 02:48:47;;;;;;;;;;;;;;;24.35;100.00;99679.88;5075050;28;19920;-80
2023/07/17 02:51:12;;;;;;;;;;;;;;;24.40;100.00;99685.41;5075031;28;20279;-79
2023/07/17 02:53:37;;;;;;;;;;;;;;;24.37;100.00;99685.06;5072861;28;19923;-79
2023/07/17 02:56:03;;;;;;;;;;;;;;;24.27;100.00;99690.19;5076053;28;19920;-80
2023/07/17 02:58:28;;;;;;;;;;;;;;;23.90;100.00;99690.19;5074610;28;19916;-80
2023/07/17 03:00:53;;;;;;;;;;;;;;;24.03;100.00;99690.00;5073004;28;19964;-80
2023/07/17 03:03:19;;;;;;;;;;;;;;;23.97;100.00;99700.91;5076636;28;19930;-80
2023/07/17 03:05:44;;;;;;;;;;;;;;;23.93;100.00;99700.53;5074066;28;20002;-80
2023/07/17 03:08:10;;;;;;;;;;;;;;;23.93;100.00;99700.53;5076189;28;20328;-79
2023/07/17 03:10:35;;;;;;;;;;;;;;;23.99;100.00;99699.63;5075190;28;19916;-81
2023/07/17 03:13:00;;;;;;;;;;;;;;;23.94;100.00;99698.66;5074479;28;19916;-81
2023/07/17 03:15:26;;;;;;;;;;;;;;;23.95;100.00;99703.00;5074815;28;19917;-82
2023/07/17 03:17:51;;;;;;;;;;;;;;;23.90;100.00;99700.16;5076018;28;19920;-81
2023/07/17 03:20:17;;;;;;;;;;;;;;;23.89;100.00;99687.72;5072123;28;19920;-81
2023/07/17 03:22:43;;;;;;;;;;;;;;;23.83;100.00;99697.53;5074386;28;19923;-81
2023/07/17 03:25:08;;;;;;;;;;;;;;;23.90;100.00;99692.91;5073442;28;20295;-81
2023/07/17 03:27:34;;;;;;;;;;;;;;;23.88;100.00;99703.06;5072232;28;19917;-81
2023/07/17 03:30:00;;;;;;;;;;;;;;;23.59;100.00;99701.13;5072970;28;19925;-82
2023/07/17 03:32:25;;;;;;;;;;;;;;;23.57;100.00;99697.81;5073970;28;20034;-81
2023/07/17 03:34:51;;;;;;;;;;;;;;;23.47;100.00;99701.03;5070460;28;19974;-81
2023/07/17 03:37:16;;;;;;;;;;;;;;;23.57;100.00;99705.91;5077414;28;19916;-81
2023/07/17 03:39:41;;;;;;;;;;;;;;;23.63;100.00;99713.09;5073441;28;20009;-81
2023/07/17 03:42:10;;;;;;;;;;;;;;;23.51;100.00;99715.69;5076006;28;19916;-81
2023/07/17 03:44:36;;;;;;;;;;;;;;;23.48;100.00;99724.22;5073591;28;19923;-82
2023/07/17 03:47:02;;;;;;;;;;;;;;;23.57;100.00;99722.06;5074569;28;19916;-82
2023/07/17 03:49:29;;;;;;;;;;;;;;;23.49;100.00;99727.75;5073818;28;19954;-80
2023/07/17 03:51:54;;;;;;;;;;;;;;;23.55;100.00;99734.94;5070310;28;19924;-80
2023/07/17 03:54:20;;;;;;;;;;;;;;;23.46;100.00;99725.44;5071963;28;19924;-80
2023/07/17 03:56:45;;;;;;;;;;;;;;;23.45;100.00;99724.63;5071951;28;20007;-81
2023/07/17 03:59:10;;;;;;;;;;;;;;;23.45;100.00;99723.81;5070316;28;19920;-81
2023/07/17 04:01:36;;;;;;;;;;;;;;;23.50;100.00;99721.31;5071405;28;19956;-82
2023/07/17 04:04:01;;;;;;;;;;;;;;;23.54;100.00;99727.91;5069859;28;19920;-81
2023/07/17 04:06:27;;;;;;;;;;;;;;;23.58;100.00;99729.94;5070950;28;19938;-81
2023/07/17 04:08:52;;;;;;;;;;;;;;;23.54;100.00;99735.97;5070553;28;19916;-82
2023/07/17 04:11:18;;;;;;;;;;;;;;;23.62;100.00;99741.09;5070346;28;19916;-83
2023/07/17 04:13:47;;;;;;;;;;;;;;;23.68;100.00;99738.31;5070737;28;19916;-80
2023/07/17 04:16:12;;;;;;;;;;;;;;;23.66;100.00;99742.28;5069716;28;19926;-81
2023/07/17 04:18:38;;;;;;;;;;;;;;;23.70;100.00;99738.09;5069843;28;19962;-80
2023/07/17 04:21:03;;;;;;;;;;;;;;;23.79;100.00;99736.78;5071232;28;19996;-79
2023/07/17 04:23:29;;;;;;;;;;;;;;;23.80;100.00;99735.69;5070536;28;19988;-82
2023/07/17 04:25:58;;;;;;;;;;;;;;;23.87;100.00;99739.16;5070472;28;20023;-79
2023/07/17 04:28:23;;;;;;;;;;;;;;;23.90;100.00;99743.28;5071860;28;20283;-79
2023/07/17 04:30:49;;;;;;;;;;;;;;;23.92;100.00;99742.00;5070410;28;19916;-79
2023/07/17 04:33:15;;;;;;;;;;;;;;;23.91;100.00;99745.75;5069291;28;20791;-80
2023/07/17 04:35:42;;;;;;;;;;;;;;;23.65;100.00;99759.50;5070410;28;20012;-79
2023/07/17 04:38:07;;;;;;;;;;;;;;;23.43;100.00;99758.22;5069833;28;20423;-80
2023/07/17 04:40:33;;;;;;;;;;;;;;;23.56;100.00;99752.75;5070084;28;19988;-80
2023/07/17 04:43:00;;;;;;;;;;;;;;;23.61;100.00;99755.59;5069822;28;19977;-80
2023/07/17 04:45:26;;;;;;;;;;;;;;;23.59;100.00;99758.50;5070017;28;19920;-81
2023/07/17 04:47:53;;;;;;;;;;;;;;;23.57;100.00;99757.06;5069515;28;20011;-81
2023/07/17 04:50:18;;;;;;;;;;;;;;;23.57;100.00;99762.47;5070564;28;19999;-79
2023/07/17 04:52:43;;;;;;;;;;;;;;;23.60;100.00;99756.66;5074176;28;19924;-82
2023/07/17 04:55:09;;;;;;;;;;;;;;;23.59;100.00;99763.06;5075572;28;19916;-86
2023/07/17 04:57:34;;;;;;;;;;;;;;;23.57;100.00;99757.91;5074838;28;19926;-77
2023/07/17 05:00:00;;;;;;;;;;;;;;;23.58;100.00;99762.25;5073443;28;20605;-77
2023/07/17 05:02:25;;;;;;;;;;;;;;;23.69;100.00;99747.22;5077207;28;20023;-75
2023/07/17 05:04:51;;;;;;;;;;;;;;;23.79;100.00;99755.63;5077908;28;19921;-76
2023/07/17 05:07:16;;;;;;;;;;;;;;;23.76;100.00;99758.75;5077659;28;19916;-74
2023/07/17 05:09:42;;;;;;;;;;;;;;;23.77;100.00;99749.63;5088695;28;19978;-77
2023/07/17 05:12:07;;;;;;;;;;;;;;;23.84;100.00;99761.16;5077254;28;19921;-77
2023/07/17 05:14:34;;;;;;;;;;;;;;;23.79;100.00;99758.31;5092070;28;19920;-75
2023/07/17 05:17:00;;;;;;;;;;;;;;;23.87;100.00;99759.88;5074040;28;20033;-76
2023/07/17 05:19:25;;;;;;;;;;;;;;;23.91;100.00;99761.94;5094764;28;20512;-75
2023/07/17 05:21:50;;;;;;;;;;;;;;;23.95;100.00;99752.34;5076196;28;19916;-74
2023/07/17 05:24:16;;;;;;;;;;;;;;;24.05;100.00;99766.09;5074967;28;19976;-75
2023/07/17 05:26:42;;;;;;;;;;;;;;;24.08;100.00;99751.38;5077761;28;20015;-77
2023/07/17 05:29:07;;;;;;;;;;;;;;;24.15;100.00;99759.38;5075880;28;20004;-75
2023/07/17 05:31:33;;;;;;;;;;;;;;;24.18;100.00;99767.00;5073897;28;19924;-75
2023/07/17 05:33:59;;;;;;;;;;;;;;;24.09;100.00;99764.59;5078353;28;19917;-75
2023/07/17 05:36:24;;;;;;;;;;;;;;;24.16;100.00;99766.38;5075285;28;19969;-75
2023/07/17 05:38:49;;;;;;;;;;;;;;;24.21;100.00;99767.38;5076374;28;19917;-74
2023/07/17 05:41:15;;;;;;;;;;;;;;;24.28;100.00;99767.31;5074722;28;19930;-74
2023/07/17 05:43:41;;;;;;;;;;;;;;;24.38;100.00;99767.63;5092329;28;20372;-75
2023/07/17 05:46:12;;;;;;;;;;;;;;;24.28;100.00;99767.31;5075225;28;19920;-74
2023/07/17 05:48:38;;;;;;;;;;;;;;;24.12;100.00;99774.13;5074587;28;19917;-75
2023/07/17 05:51:03;;;;;;;;;;;;;;;24.01;100.00;99786.47;5078774;28;19916;-75
2023/07/17 05:53:28;;;;;;;;;;;;;;;24.02;100.00;99768.44;5094431;28;20018;-75
2023/07/17 05:55:54;;;;;;;;;;;;;;;24.02;100.00;99769.25;5075252;28;19995;-75
2023/07/17 05:58:20;;;;;;;;;;;;;;;24.13;100.00;99774.94;5089168;28;19917;-75
2023/07/17 06:00:46;;;;;;;;;;;;;;;24.30;100.00;99781.41;5074553;28;19926;-75
2023/07/17 06:03:11;;;;;;;;;;;;;;;24.44;100.00;99783.72;5089603;28;19912;-75
2023/07/17 06:05:38;;;;;;;;;;;;;;;24.57;100.00;99780.00;5076144;28;20015;-75
2023/07/17 06:08:03;;;;;;;;;;;;;;;24.66;100.00;99775.97;5072185;28;19982;-76
2023/07/17 06:10:29;;;;;;;;;;;;;;;24.77;100.00;99782.44;5074141;28;20326;-76
2023/07/17 06:12:54;;;;;;;;;;;;;;;24.80;100.00;99788.19;5080312;28;19923;-76
2023/07/17 06:15:20;;;;;;;;;;;;;;;24.88;100.00;99793.31;5075790;28;19999;-75
2023/07/17 06:17:45;;;;;;;;;;;;;;;24.97;100.00;99793.00;5075390;28;19966;-74
2023/07/17 06:20:11;;;;;;;;;;;;;;;25.05;100.00;99795.34;5076731;28;19955;-75
2023/07/17 06:22:36;;;;;;;;;;;;;;;25.07;100.00;99798.66;5079655;28;19912;-75
2023/07/17 06:25:02;;;;;;;;;;;;;;;25.14;100.00;99799.38;5077012;28;19924;-75
2023/07/17 06:27:27;;;;;;;;;;;;;;;25.22;100.00;99796.31;5075669;28;20379;-75
2023/07/17 06:29:52;;;;;;;;;;;;;;;25.26;100.00;99798.34;5074236;28;19919;-75
2023/07/17 06:32:18;;;;;;;;;;;;;;;25.35;100.00;99806.94;5075255;28;19924;-75
2023/07/17 06:34:43;;;;;;;;;;;;;;;25.41;100.00;99803.28;5075513;28;19916;-75
2023/07/17 06:37:08;;;;;;;;;;;;;;;25.44;100.00;99800.16;5078075;28;19916;-75
2023/07/17 06:39:34;;;;;;;;;;;;;;;25.33;100.00;99803.63;5073736;28;19916;-75
2023/07/17 06:41:59;;;;;;;;;;;;;;;25.29;100.00;99797.03;5074463;28;19942;-75
2023/07/17 06:44:24;;;;;;;;;;;;;;;25.24;100.00;99799.63;5076828;28;19925;-76
2023/07/17 06:46:50;;;;;;;;;;;;;;;25.40;100.00;99792.72;5077444;28;19923;-76
2023/07/17 06:49:15;;;;;;;;;;;;;;;25.55;100.00;99793.91;5072935;28;19920;-77
2023/07/17 06:51:40;;;;;;;;;;;;;;;25.68;100.00;99801.81;5074885;28;20303;-77
2023/07/17 06:54:06;;;;;;;;;;;;;;;25.78;100.00;99800.41;5072847;28;19916;-77
2023/07/17 06:56:31;;;;;;;;;;;;;;;25.90;100.00;99803.94;5075943;28;19927;-77
2023/07/17 06:58:56;;;;;;;;;;;;;;;26.02;100.00;99802.03;5075725;28;19935;-76
2023/07/17 07:01:22;;;;;;;;;;;;;;;26.12;100.00;99810.38;5077141;28;19917;-77
2023/07/17 07:03:47;;;;;;;;;;;;;;;26.21;100.00;99811.66;5073194;28;19916;-77
2023/07/17 07:06:12;;;;;;;;;;;;;;;26.27;100.00;99815.31;5078185;28;19963;-78
2023/07/17 07:08:38;;;;;;;;;;;;;;;26.22;100.00;99818.69;5075803;28;20381;-77
2023/07/17 07:11:04;;;;;;;;;;;;;;;26.34;100.00;99816.00;5077450;28;20272;-75
2023/07/17 07:13:29;;;;;;;;;;;;;;;26.46;100.00;99819.50;5078340;28;19916;-77
2023/07/17 07:15:55;;;;;;;;;;;;;;;26.57;100.00;99825.97;5076604;28;19920;-77
2023/07/17 07:18:20;;;;;;;;;;;;;;;26.62;100.00;99817.94;5073619;28;19917;-77
2023/07/17 07:20:47;;;;;;;;;;;;;;;26.62;100.00;99815.22;5075580;28;20422;-76
2023/07/17 07:23:12;;;;;;;;;;;;;;;26.48;100.00;99812.78;5071413;28;20007;-77
2023/07/17 07:25:38;;;;;;;;;;;;;;;26.64;100.00;99821.19;5071568;28;20019;-77
2023/07/17 07:28:03;;;;;;;;;;;;;;;26.73;100.00;99825.19;5071421;28;19962;-77
2023/07/17 07:30:29;;;;;;;;;;;;;;;26.80;100.00;99825.88;5071356;28;20387;-76
2023/07/17 07:32:54;;;;;;;;;;;;;;;26.90;100.00;99820.66;5071532;28;19928;-76
2023/07/17 07:35:20;;;;;;;;;;;;;;;26.98;100.00;99825.69;5071742;28;20541;-77
2023/07/17 07:37:45;;;;;;;;;;;;;;;27.07;100.00;99816.13;5071436;28;20356;-78
2023/07/17 07:40:11;;;;;;;;;;;;;;;27.15;100.00;99823.84;5070634;28;20143;-76
2023/07/17 07:42:40;;;;;;;;;;;;;;;27.24;100.00;99827.78;5069931;28;19986;-76
2023/07/17 07:45:05;;;;;;;;;;;;;;;27.29;100.00;99825.16;5070654;28;19920;-76
2023/07/17 07:47:32;;;;;;;;;;;;;;;27.33;100.00;99828.22;5071672;28;20349;-76
2023/07/17 07:49:57;;;;;;;;;;;;;;;27.41;100.00;99833.22;5072696;28;19923;-76
2023/07/17 07:52:22;;;;;;;;;;;;;;;27.48;100.00;99824.94;5069692;28;19917;-77
2023/07/17 07:54:48;;;;;;;;;;;;;;;27.48;100.00;99838.47;5070852;28;20015;-76
2023/07/17 07:57:13;;;;;;;;;;;;;;;27.53;100.00;99831.28;5070451;28;19920;-76
2023/07/17 07:59:38;;;;;;;;;;;;;;;27.53;100.00;99830.47;5062093;28;19944;-75
2023/07/17 08:02:04;;;;;;;;;;;;;;;27.62;100.00;99829.00;5068046;28;19959;-76
2023/07/17 08:04:29;;;;;;;;;;;;;;;27.70;100.00;99831.28;5067329;28;19916;-78
2023/07/17 08:06:55;;;;;;;;;;;;;;;27.79;100.00;99834.41;5065387;28;20011;-76
2023/07/17 08:09:20;;;;;;;;;;;;;;;27.81;100.00;99833.06;5070193;28;19967;-76
2023/07/17 08:11:45;;;;;;;;;;;;;;;27.84;100.00;99838.00;5072588;28;20405;-75
2023/07/17 08:14:11;;;;;;;;;;;;;;;27.88;100.00;99841.84;5068619;28;20328;-76
2023/07/17 08:16:36;;;;;;;;;;;;;;;27.94;100.00;99835.44;5070337;28;19915;-76
2023/07/17 08:19:01;;;;;;;;;;;;;;;27.99;100.00;99830.09;5070509;28;19923;-75
2023/07/17 08:21:26;;;;;;;;;;;;;;;28.05;100.00;99833.69;5062870;28;20004;-75
2023/07/17 08:23:52;;;;;;;;;;;;;;;28.12;100.00;99839.75;5069357;28;20300;-77
2023/07/17 08:26:18;;;;;;;;;;;;;;;28.19;100.00;99828.75;5073643;28;19973;-75
2023/07/17 08:28:43;;;;;;;;;;;;;;;28.25;100.00;99827.75;5076134;28;19998;-80
2023/07/17 08:31:08;;;;;;;;;;;;;;;28.32;100.00;99820.25;5071392;28;19920;-75
2023/07/17 08:33:34;;;;;;;;;;;;;;;28.37;100.00;99823.03;5075868;28;19998;-86
2023/07/17 08:35:59;;;;;;;;;;;;;;;28.42;100.00;99823.09;5074337;28;19923;-89
2023/07/17 08:38:24;;;;;;;;;;;;;;;28.47;100.00;99825.88;5081739;28;19924;-88
2023/07/17 08:40:52;;;;;;;;;;;;;;;28.52;100.00;99818.59;5072479;28;19923;-84
2023/07/17 08:43:18;;;;;;;;;;;;;;;28.58;100.00;99816.75;5079031;28;19946;-86
2023/07/17 08:45:45;;;;;;;;;;;;;;;28.62;100.00;99817.91;5071792;28;19916;-85
2023/07/17 08:48:11;;;;;;;;;;;;;;;28.63;100.00;99814.09;5076090;28;19958;-85
2023/07/17 08:50:37;;;;;;;;;;;;;;;28.69;100.00;99812.25;5074202;28;20006;-85
2023/07/17 08:53:03;;;;;;;;;;;;;;;28.76;100.00;99812.91;5072287;28;19943;-86
2023/07/17 08:55:32;;;;;;;;;;;;;;;28.80;100.00;99809.47;5073436;28;20003;-84
2023/07/17 08:58:00;;;;;;;;;;;;;;;28.82;100.00;99810.00;5076921;28;20340;-84
2023/07/17 09:00:26;;;;;;;;;;;;;;;28.84;100.00;99809.75;5071882;28;19927;-86
2023/07/17 09:02:51;;;;;;;;;;;;;;;28.87;100.00;99810.06;5072501;28;19928;-85
2023/07/17 09:05:17;;;;;;;;;;;;;;;28.93;100.00;99808.22;5074068;28;19964;-85
2023/07/17 09:07:42;;;;;;;;;;;;;;;28.99;100.00;99809.91;5075291;28;20291;-85
2023/07/17 09:10:20;;;;;;;;;;;;;;;29.04;100.00;99809.94;5071409;28;19927;-85
2023/07/17 09:12:50;;;;;;;;;;;;;;;29.11;100.00;99801.59;5078085;28;19928;-84
2023/07/17 09:15:15;;;;;;;;;;;;;;;29.16;100.00;99788.88;5070434;28;19920;-84
2023/07/17 09:17:41;;;;;;;;;;;;;;;29.21;100.00;99799.81;5075431;28;19922;-86
2023/07/17 09:20:10;;;;;;;;;;;;;;;29.26;100.00;99801.75;5073682;28;20390;-86
2023/07/17 09:22:38;;;;;;;;;;;;;;;29.33;100.00;99794.22;5073422;28;19916;-84
2023/07/17 09:25:04;;;;;;;;;;;;;;;29.38;100.00;99794.28;5074313;28;19928;-85
2023/07/17 09:27:29;;;;;;;;;;;;;;;29.43;100.00;99796.19;5068195;28;19924;-85
2023/07/17 09:29:55;;;;;;;;;;;;;;;29.49;100.00;99795.97;5071432;28;19951;-85
2023/07/17 09:32:22;;;;;;;;;;;;;;;29.56;100.00;99791.16;5069703;28;19916;-85
2023/07/17 09:35:04;;;;;;;;;;;;;;;29.61;100.00;99787.63;5072135;28;20029;-84
2023/07/17 09:37:32;;;;;;;;;;;;;;;29.67;100.00;99792.03;5067573;28;20034;-85
2023/07/17 09:40:07;;;;;;;;;;;;;;;29.72;100.00;99789.34;5087993;28;19969;-85
2023/07/17 09:42:32;;;;;;;;;;;;;;;29.78;100.00;99787.47;5074723;28;20383;-86
2023/07/17 09:44:58;;;;;;;;;;;;;;;29.84;100.00;99786.41;5074530;28;19916;-85
2023/07/17 09:47:24;;;;;;;;;;;;;;;29.91;100.00;99784.31;5075183;28;20361;-85
2023/07/17 09:49:53;;;;;;;;;;;;;;;29.95;100.00;99788.16;5074685;28;19959;-84
2023/07/17 09:52:19;;;;;;;;;;;;;;;30.03;100.00;99790.38;5073985;28;19916;-85
2023/07/17 09:54:45;;;;;;;;;;;;;;;30.08;100.00;99791.22;5078542;28;19998;-83
2023/07/17 09:57:19;;;;;;;;;;;;;;;30.14;100.00;99785.81;5074694;28;20728;-85
2023/07/17 09:59:47;;;;;;;;;;;;;;;30.20;100.00;99788.28;5079988;28;20387;-85
2023/07/17 10:02:16;;;;;;;;;;;;;;;30.26;100.00;99784.50;5075059;28;19916;-86
2023/07/17 10:04:44;;;;;;;;;;;;;;;30.31;100.00;99792.69;5077570;28;20015;-85
2023/07/17 10:07:11;;;;;;;;;;;;;;;30.32;100.00;99788.88;5076569;28;19916;-86
2023/07/17 10:09:37;;;;;;;;;;;;;;;30.34;100.00;99789.41;5073252;28;19917;-86
2023/07/17 10:12:04;;;;;;;;;;;;;;;30.33;100.00;99785.06;5074030;28;20283;-86
2023/07/17 10:14:30;;;;;;;;;;;;;;;30.35;100.00;99779.34;5078688;28;19920;-86
2023/07/17 10:16:55;;;;;;;;;;;;;;;30.38;100.00;99774.19;5074221;28;19920;-85
2023/07/17 10:19:25;;;;;;;;;;;;;;;30.41;100.00;99773.66;5076350;28;19916;-85
2023/07/17 10:21:57;;;;;;;;;;;;;;;30.47;100.00;99767.13;5072466;28;20003;-85
2023/07/17 10:24:26;;;;;;;;;;;;;;;30.51;100.00;99760.09;5073688;28;19923;-85
2023/07/17 10:26:51;;;;;;;;;;;;;;;30.65;100.00;99767.75;5075228;28;19924;-84
2023/07/17 10:29:40;;;;;;;;;;;;;;;30.73;100.00;99761.78;5075123;28;19925;-85
2023/07/17 10:32:24;;;;;;;;;;;;;;;30.78;100.00;99767.25;5075931;28;19965;-83
2023/07/17 10:34:50;;;;;;;;;;;;;;;30.85;100.00;99763.19;5076948;28;20447;-84
2023/07/17 10:37:39;;;;;;;;;;;;;;;30.90;100.00;99763.19;5076527;28;19924;-86
2023/07/17 10:40:07;;;;;;;;;;;;;;;30.95;100.00;99759.63;5081154;28;20598;-85
2023/07/17 10:42:33;;;;;;;;;;;;;;;30.98;100.00;99748.22;5074358;28;19927;-86
2023/07/17 10:45:08;;;;;;;;;;;;;;;31.04;100.00;99754.50;4734919;28;9999755;-86
2023/07/17 10:47:34;;;;;;;;;;;;;;;31.09;100.00;99758.06;5073828;28;20047;-86
2023/07/17 10:50:02;;;;;;;;;;;;;;;31.17;100.00;99749.31;5074802;28;20027;-85
2023/07/17 10:52:31;;;;;;;;;;;;;;;31.27;100.00;99752.06;5083032;28;19939;-85
2023/07/17 10:54:56;;;;;;;;;;;;;;;31.35;100.00;99749.84;5092866;28;19959;-84
2023/07/17 10:57:22;;;;;;;;;;;;;;;31.44;100.00;99745.50;5077237;28;19916;-85
2023/07/17 10:59:47;;;;;;;;;;;;;;;31.53;100.00;99744.66;5089425;28;20692;-85
2023/07/17 11:02:13;;;;;;;;;;;;;;;31.60;100.00;99738.94;5081622;28;19923;-84
2023/07/17 11:04:38;;;;;;;;;;;;;;;31.63;100.00;99738.41;5073006;28;19917;-86
2023/07/17 11:07:07;;;;;;;;;;;;;;;31.67;100.00;99734.03;5067737;28;19963;-85
2023/07/17 11:09:33;;;;;;;;;;;;;;;31.73;100.00;99724.75;5073398;28;19920;-85
2023/07/17 11:11:59;;;;;;;;;;;;;;;31.82;100.00;99725.78;5067904;28;19976;-84
2023/07/17 11:14:25;;;;;;;;;;;;;;;31.94;100.00;99723.56;5070811;28;19973;-82
2023/07/17 11:16:52;;;;;;;;;;;;;;;31.96;100.00;99724.09;5067629;28;20433;-85
2023/07/17 11:19:17;;;;;;;;;;;;;;;32.03;100.00;99719.16;5077879;28;19916;-85
2023/07/17 11:21:42;;;;;;;;;;;;;;;32.04;100.00;99718.09;5075125;28;19927;-84
2023/07/17 11:24:08;;;;;;;;;;;;;;;32.06;100.00;99718.59;5071348;28;19924;-84
2023/07/17 11:26:33;;;;;;;;;;;;;;;32.14;100.00;99705.50;5073781;28;19972;-86
2023/07/17 11:28:59;;;;;;;;;;;;;;;32.20;100.00;99704.38;5072487;28;20012;-84
2023/07/17 11:31:28;;;;;;;;;;;;;;;32.23;100.00;99703.81;5074445;28;19931;-87
2023/07/17 11:34:04;;;;;;;;;;;;;;;32.28;100.00;99706.53;5071020;28;19916;-86
2023/07/17 11:36:32;;;;;;;;;;;;;;;32.38;98.74;99710.03;5067501;28;19920;-85
2023/07/17 11:39:09;;;;;;;;;;;;;;;32.43;98.69;99703.69;5073739;28;19927;-84
2023/07/17 11:41:41;;;;;;;;;;;;;;;32.48;97.56;99712.69;5067312;28;20356;-84
2023/07/17 11:44:07;;;;;;;;;;;;;;;32.56;96.19;99705.00;5071355;28;19920;-85
2023/07/17 11:46:32;;;;;;;;;;;;;;;32.59;96.51;99701.69;5073337;28;20380;-86
2023/07/17 11:48:59;;;;;;;;;;;;;;;32.65;96.32;99706.81;5073769;28;19931;-85
2023/07/17 11:51:25;;;;;;;;;;;;;;;32.66;95.91;99703.03;5074025;28;19920;-85
2023/07/17 11:53:54;;;;;;;;;;;;;;;32.71;94.75;99704.91;5067642;28;19920;-86
2023/07/17 11:56:20;;;;;;;;;;;;;;;32.73;95.41;99703.53;5083947;28;19946;-85
2023/07/17 11:58:52;;;;;;;;;;;;;;;32.74;95.59;99698.88;5073696;28;19942;-83
2023/07/17 12:01:17;;;;;;;;;;;;;;;32.78;94.96;99706.22;5073168;28;19916;-84
2023/07/17 12:03:43;;;;;;;;;;;;;;;32.89;94.30;99696.03;5070642;28;19922;-84
2023/07/17 12:06:08;;;;;;;;;;;;;;;32.97;94.29;99697.34;5072615;28;19942;-85
2023/07/17 12:08:33;;;;;;;;;;;;;;;33.06;93.76;99690.13;5071236;28;19923;-85
2023/07/17 12:10:59;;;;;;;;;;;;;;;33.05;94.25;99683.06;5071453;28;19924;-83
2023/07/17 12:13:24;;;;;;;;;;;;;;;33.10;92.74;99685.75;5072871;28;19927;-82
2023/07/17 12:15:50;;;;;;;;;;;;;;;33.24;91.67;99670.31;5073685;28;20363;-84
2023/07/17 12:18:15;;;;;;;;;;;;;;;33.45;90.56;99679.94;5071756;28;19934;-83
2023/07/17 12:20:41;;;;;;;;;;;;;;;33.49;91.28;99672.78;5073120;28;19920;-83
2023/07/17 12:23:06;;;;;;;;;;;;;;;33.59;90.61;99667.19;5073417;28;20395;-83
2023/07/17 12:25:31;;;;;;;;;;;;;;;33.85;89.22;99664.19;5073253;28;19927;-84
2023/07/17 12:27:58;;;;;;;;;;;;;;;33.90;88.42;99662.19;5068688;28;19912;-84
2023/07/17 12:30:24;;;;;;;;;;;;;;;33.87;88.64;99667.47;5072983;28;19920;-84
2023/07/17 12:32:50;;;;;;;;;;;;;;;33.85;88.32;99659.53;5074690;28;20301;-84